createdAt,value
2018-02-12T00:00:05.111Z,0
2018-02-12T00:01:20.021Z,0
2018-02-12T00:02:34.366Z,0
2018-02-12T00:03:49.306Z,0
2018-02-12T00:05:03.776Z,0
2018-02-12T00:06:18.371Z,0
2018-02-12T00:07:33.554Z,0
2018-02-12T00:08:47.874Z,0
2018-02-12T00:10:02.781Z,0
2018-02-12T00:11:17.117Z,0
2018-02-12T00:12:31.609Z,0
2018-02-12T00:13:46.810Z,0
2018-02-12T00:15:01.331Z,0
2018-02-12T00:16:15.659Z,0
2018-02-12T00:17:30.827Z,0
2018-02-12T00:18:45.469Z,0
2018-02-12T00:20:01.282Z,0
2018-02-12T00:21:15.654Z,0
2018-02-12T00:22:30.826Z,0
2018-02-12T00:23:45.683Z,0
2018-02-12T00:25:00.296Z,0
2018-02-12T00:26:15.359Z,0
2018-02-12T00:27:30.311Z,0
2018-02-12T00:28:45.470Z,0
2018-02-12T00:30:00.271Z,0
2018-02-12T00:31:14.779Z,0
2018-02-12T00:32:29.425Z,0
2018-02-12T00:33:43.977Z,0
2018-02-12T00:34:58.625Z,0
2018-02-12T00:36:13.829Z,0
2018-02-12T00:37:28.154Z,0
2018-02-12T00:38:42.804Z,0
2018-02-12T00:39:57.008Z,0
2018-02-12T00:41:11.820Z,0
2018-02-12T00:42:27.251Z,0
2018-02-12T00:43:42.155Z,0
2018-02-12T00:44:56.503Z,0
2018-02-12T00:46:10.831Z,0
2018-02-12T00:47:25.957Z,0
2018-02-12T00:48:40.892Z,0
2018-02-12T00:49:55.893Z,0
2018-02-12T00:51:11.156Z,0
2018-02-12T00:52:25.747Z,0
2018-02-12T00:53:40.343Z,0
2018-02-12T00:54:55.428Z,0
2018-02-12T00:56:10.377Z,0
2018-02-12T00:57:25.919Z,0
2018-02-12T00:58:40.868Z,0
2018-02-12T00:59:55.507Z,0
2018-02-12T01:01:10.347Z,0
2018-02-12T01:02:26.362Z,0
2018-02-12T01:03:41.272Z,0
2018-02-12T01:04:56.531Z,0
2018-02-12T01:06:11.686Z,0
2018-02-12T01:07:26.085Z,0
2018-02-12T01:08:40.655Z,0
2018-02-12T01:09:55.823Z,0
2018-02-12T01:11:10.709Z,0
2018-02-12T01:12:25.528Z,0
2018-02-12T01:13:40.141Z,0
2018-02-12T01:14:54.741Z,0
2018-02-12T01:16:09.931Z,0
2018-02-12T01:17:24.229Z,0
2018-02-12T01:18:38.813Z,0
2018-02-12T01:19:53.402Z,0
2018-02-12T01:21:07.726Z,0
2018-02-12T01:22:22.107Z,0
2018-02-12T01:23:37.241Z,0
2018-02-12T01:24:52.465Z,0
2018-02-12T01:26:07.324Z,0
2018-02-12T01:27:22.104Z,0
2018-02-12T01:28:37.453Z,0
2018-02-12T01:29:52.071Z,0
2018-02-12T01:31:07.193Z,0
2018-02-12T01:32:21.779Z,0
2018-02-12T01:33:36.867Z,0
2018-02-12T01:34:52.087Z,0
2018-02-12T01:36:06.128Z,0
2018-02-12T01:37:20.992Z,0
2018-02-12T01:38:35.365Z,0
2018-02-12T01:39:50.469Z,0
2018-02-12T01:41:05.067Z,0
2018-02-12T01:42:19.924Z,0
2018-02-12T01:43:34.805Z,0
2018-02-12T01:44:49.685Z,0
2018-02-12T01:46:03.960Z,0
2018-02-12T01:47:18.737Z,0
2018-02-12T01:48:33.144Z,0
2018-02-12T01:49:48.245Z,0
2018-02-12T01:51:03.119Z,0
2018-02-12T01:52:18.109Z,0
2018-02-12T01:53:33.211Z,0
2018-02-12T01:54:47.855Z,0
2018-02-12T01:56:03.005Z,0
2018-02-12T01:57:17.881Z,0
2018-02-12T01:58:31.912Z,0
2018-02-12T01:59:46.821Z,0
2018-02-12T02:01:01.460Z,0
2018-02-12T02:02:16.557Z,0
2018-02-12T02:03:32.047Z,0
2018-02-12T02:04:46.359Z,0
2018-02-12T02:06:01.363Z,0
2018-02-12T02:07:16.495Z,0
2018-02-12T02:08:31.928Z,0
2018-02-12T02:09:46.814Z,0
2018-02-12T02:11:01.712Z,0
2018-02-12T02:12:17.214Z,0
2018-02-12T02:13:31.545Z,0
2018-02-12T02:14:45.860Z,0
2018-02-12T02:16:00.725Z,0
2018-02-12T02:17:15.132Z,0
2018-02-12T02:18:30.267Z,0
2018-02-12T02:19:45.693Z,0
2018-02-12T02:21:00.275Z,0
2018-02-12T02:22:14.857Z,0
2018-02-12T02:23:29.305Z,0
2018-02-12T02:24:44.976Z,0
2018-02-12T02:25:59.281Z,0
2018-02-12T02:27:13.828Z,0
2018-02-12T02:28:28.236Z,0
2018-02-12T02:29:42.254Z,0
2018-02-12T02:30:57.169Z,0
2018-02-12T02:32:11.302Z,0
2018-02-12T02:33:25.706Z,0
2018-02-12T02:34:40.009Z,0
2018-02-12T02:35:55.143Z,0
2018-02-12T02:37:10.309Z,0
2018-02-12T02:38:25.320Z,0
2018-02-12T02:39:40.118Z,0
2018-02-12T02:40:54.974Z,0
2018-02-12T02:42:09.295Z,0
2018-02-12T02:43:24.404Z,0
2018-02-12T02:44:38.974Z,0
2018-02-12T02:45:54.098Z,0
2018-02-12T02:47:08.394Z,0
2018-02-12T02:48:23.176Z,0
2018-02-12T02:49:37.792Z,0
2018-02-12T02:50:52.068Z,0
2018-02-12T02:52:06.677Z,0
2018-02-12T02:53:22.021Z,0
2018-02-12T02:54:37.213Z,0
2018-02-12T02:55:51.927Z,0
2018-02-12T02:57:06.310Z,0
2018-02-12T02:58:21.557Z,0
2018-02-12T02:59:35.712Z,0
2018-02-12T03:00:50.344Z,0
2018-02-12T03:02:06.035Z,0
2018-02-12T03:03:20.933Z,0
2018-02-12T03:04:35.650Z,0
2018-02-12T03:05:50.544Z,0
2018-02-12T03:07:05.453Z,0
2018-02-12T03:08:21.207Z,0
2018-02-12T03:09:36.318Z,0
2018-02-12T03:10:50.922Z,0
2018-02-12T03:12:07.147Z,0
2018-02-12T03:13:22.002Z,0
2018-02-12T03:14:36.787Z,0
2018-02-12T03:15:51.982Z,0
2018-02-12T03:17:06.815Z,0
2018-02-12T03:18:22.006Z,0
2018-02-12T03:19:36.318Z,0
2018-02-12T03:20:51.474Z,0
2018-02-12T03:22:06.605Z,0
2018-02-12T03:23:21.837Z,0
2018-02-12T03:24:37.338Z,0
2018-02-12T03:25:51.953Z,0
2018-02-12T03:27:07.172Z,0
2018-02-12T03:28:22.337Z,0
2018-02-12T03:29:36.952Z,0
2018-02-12T03:30:51.862Z,0
2018-02-12T03:32:06.736Z,0
2018-02-12T03:33:21.964Z,0
2018-02-12T03:34:36.028Z,0
2018-02-12T03:35:50.628Z,0
2018-02-12T03:37:04.934Z,0
2018-02-12T03:38:19.533Z,0
2018-02-12T03:39:34.804Z,0
2018-02-12T03:40:49.106Z,0
2018-02-12T03:42:03.693Z,0
2018-02-12T03:43:17.748Z,0
2018-02-12T03:44:32.495Z,0
2018-02-12T03:45:47.379Z,0
2018-02-12T03:47:02.233Z,0
2018-02-12T03:48:17.204Z,0
2018-02-12T03:49:32.412Z,0
2018-02-12T03:50:47.242Z,0
2018-02-12T03:52:01.284Z,0
2018-02-12T03:53:15.903Z,0
2018-02-12T03:54:30.945Z,0
2018-02-12T03:55:44.685Z,0
2018-02-12T03:56:59.010Z,0
2018-02-12T03:58:14.144Z,0
2018-02-12T03:59:29.062Z,0
2018-02-12T04:00:43.726Z,0
2018-02-12T04:01:58.313Z,0
2018-02-12T04:03:13.191Z,0
2018-02-12T04:04:28.115Z,0
2018-02-12T04:05:42.696Z,0
2018-02-12T04:06:57.838Z,0
2018-02-12T04:08:12.406Z,0
2018-02-12T04:09:27.003Z,0
2018-02-12T04:10:42.028Z,0
2018-02-12T04:11:56.848Z,0
2018-02-12T04:13:11.584Z,0
2018-02-12T04:14:26.492Z,0
2018-02-12T04:15:41.430Z,0
2018-02-12T04:16:56.664Z,0
2018-02-12T04:18:11.030Z,0
2018-02-12T04:19:25.650Z,0
2018-02-12T04:20:40.468Z,0
2018-02-12T04:21:55.353Z,0
2018-02-12T04:23:09.691Z,0
2018-02-12T04:24:24.877Z,0
2018-02-12T04:25:39.398Z,0
2018-02-12T04:26:53.419Z,0
2018-02-12T04:28:07.827Z,0
2018-02-12T04:29:22.163Z,0
2018-02-12T04:30:37.382Z,0
2018-02-12T04:31:52.240Z,0
2018-02-12T04:33:06.827Z,0
2018-02-12T04:34:21.760Z,0
2018-02-12T04:35:36.645Z,0
2018-02-12T04:36:51.406Z,0
2018-02-12T04:38:06.267Z,0
2018-02-12T04:39:22.250Z,0
2018-02-12T04:40:36.954Z,0
2018-02-12T04:41:51.882Z,0
2018-02-12T04:43:07.084Z,0
2018-02-12T04:44:22.574Z,0
2018-02-12T04:45:37.222Z,0
2018-02-12T04:46:52.131Z,0
2018-02-12T04:48:07.129Z,0
2018-02-12T04:49:21.774Z,0
2018-02-12T04:50:36.569Z,0
2018-02-12T04:51:50.649Z,0
2018-02-12T04:53:05.015Z,0
2018-02-12T04:54:19.889Z,0
2018-02-12T04:55:34.484Z,0
2018-02-12T04:56:49.378Z,0
2018-02-12T04:58:04.004Z,0
2018-02-12T04:59:18.653Z,0
2018-02-12T05:00:34.175Z,0
2018-02-12T05:01:48.767Z,0
2018-02-12T05:03:03.659Z,0
2018-02-12T05:04:18.297Z,0
2018-02-12T05:05:33.179Z,0
2018-02-12T05:06:49.010Z,0
2018-02-12T05:08:04.121Z,0
2018-02-12T05:09:19.016Z,0
2018-02-12T05:10:34.060Z,0
2018-02-12T05:11:49.625Z,0
2018-02-12T05:13:04.510Z,0
2018-02-12T05:14:19.380Z,0
2018-02-12T05:15:34.248Z,0
2018-02-12T05:16:49.450Z,0
2018-02-12T05:18:04.327Z,0
2018-02-12T05:19:19.536Z,0
2018-02-12T05:20:33.953Z,0
2018-02-12T05:21:48.975Z,0
2018-02-12T05:23:04.121Z,0
2018-02-12T05:24:18.767Z,0
2018-02-12T05:25:33.499Z,0
2018-02-12T05:26:48.122Z,0
2018-02-12T05:28:03.008Z,0
2018-02-12T05:29:17.650Z,0
2018-02-12T05:30:32.570Z,0
2018-02-12T05:31:47.610Z,0
2018-02-12T05:33:02.597Z,0
2018-02-12T05:34:17.179Z,0
2018-02-12T05:35:32.058Z,0
2018-02-12T05:36:47.236Z,0
2018-02-12T05:38:01.926Z,0
2018-02-12T05:39:16.625Z,0
2018-02-12T05:40:30.935Z,0
2018-02-12T05:41:45.273Z,0
2018-02-12T05:42:59.906Z,0
2018-02-12T05:44:15.123Z,0
2018-02-12T05:45:29.443Z,0
2018-02-12T05:46:43.886Z,0
2018-02-12T05:47:58.232Z,0
2018-02-12T05:49:12.941Z,0
2018-02-12T05:50:27.821Z,0
2018-02-12T05:51:42.143Z,0
2018-02-12T05:52:57.234Z,0
2018-02-12T05:54:13.020Z,0
2018-02-12T05:55:27.916Z,0
2018-02-12T05:56:43.321Z,0
2018-02-12T05:57:58.363Z,0
2018-02-12T05:59:13.337Z,0
2018-02-12T06:00:27.920Z,0
2018-02-12T06:01:42.007Z,0
2018-02-12T06:02:57.055Z,0
2018-02-12T06:04:11.664Z,0
2018-02-12T06:05:25.760Z,0
2018-02-12T06:06:40.907Z,0
2018-02-12T06:07:55.576Z,0
2018-02-12T06:09:11.032Z,0
2018-02-12T06:10:25.934Z,0
2018-02-12T06:11:41.072Z,0
2018-02-12T06:12:56.053Z,0
2018-02-12T06:14:10.636Z,0
2018-02-12T06:15:25.818Z,0
2018-02-12T06:16:40.430Z,0
2018-02-12T06:17:54.695Z,0
2018-02-12T06:19:10.117Z,0
2018-02-12T06:20:24.764Z,0
2018-02-12T06:21:39.470Z,0
2018-02-12T06:22:53.633Z,0
2018-02-12T06:24:08.099Z,0
2018-02-12T06:25:23.290Z,0
2018-02-12T06:26:38.379Z,0
2018-02-12T06:27:53.693Z,0
2018-02-12T06:29:08.895Z,0
2018-02-12T06:30:23.525Z,0
2018-02-12T06:31:37.887Z,0
2018-02-12T06:32:53.062Z,0
2018-02-12T06:34:08.431Z,0
2018-02-12T06:35:23.101Z,0
2018-02-12T06:36:38.614Z,0
2018-02-12T06:37:53.220Z,0
2018-02-12T06:39:08.420Z,0
2018-02-12T06:40:23.677Z,0
2018-02-12T06:41:38.309Z,0
2018-02-12T06:42:53.500Z,5
2018-02-12T06:44:08.263Z,5
2018-02-12T06:45:23.118Z,5
2018-02-12T06:46:38.687Z,5
2018-02-12T06:47:54.410Z,5
2018-02-12T06:49:09.873Z,5
2018-02-12T06:50:23.994Z,5
2018-02-12T06:51:38.957Z,10
2018-02-12T06:52:54.451Z,10
2018-02-12T06:54:09.443Z,10
2018-02-12T06:55:24.159Z,10
2018-02-12T06:56:38.850Z,10
2018-02-12T06:57:53.018Z,10
2018-02-12T06:59:08.179Z,10
2018-02-12T07:00:22.511Z,15
2018-02-12T07:01:36.862Z,15
2018-02-12T07:02:51.467Z,15
2018-02-12T07:04:06.426Z,15
2018-02-12T07:05:21.507Z,15
2018-02-12T07:06:36.520Z,15
2018-02-12T07:07:51.530Z,15
2018-02-12T07:09:06.233Z,15
2018-02-12T07:10:20.613Z,15
2018-02-12T07:11:35.936Z,15
2018-02-12T07:12:50.610Z,15
2018-02-12T07:14:06.080Z,20
2018-02-12T07:15:20.940Z,15
2018-02-12T07:16:35.925Z,20
2018-02-12T07:17:51.088Z,20
2018-02-12T07:19:06.306Z,25
2018-02-12T07:20:21.260Z,25
2018-02-12T07:21:35.835Z,25
2018-02-12T07:22:51.011Z,25
2018-02-12T07:24:06.522Z,30
2018-02-12T07:25:21.493Z,30
2018-02-12T07:26:36.913Z,35
2018-02-12T07:27:50.974Z,30
2018-02-12T07:29:06.371Z,25
2018-02-12T07:30:21.918Z,30
2018-02-12T07:31:37.021Z,30
2018-02-12T07:32:51.377Z,30
2018-02-12T07:34:05.999Z,30
2018-02-12T07:35:20.627Z,30
2018-02-12T07:36:36.020Z,35
2018-02-12T07:37:50.652Z,40
2018-02-12T07:39:05.885Z,45
2018-02-12T07:40:20.809Z,45
2018-02-12T07:41:35.470Z,45
2018-02-12T07:42:50.556Z,40
2018-02-12T07:44:05.187Z,40
2018-02-12T07:45:19.862Z,40
2018-02-12T07:46:34.826Z,45
2018-02-12T07:47:49.180Z,45
2018-02-12T07:49:03.749Z,50
2018-02-12T07:50:18.448Z,50
2018-02-12T07:51:33.388Z,50
2018-02-12T07:52:48.274Z,50
2018-02-12T07:54:03.511Z,55
2018-02-12T07:55:19.089Z,55
2018-02-12T07:56:34.297Z,55
2018-02-12T07:57:49.223Z,50
2018-02-12T07:59:03.969Z,50
2018-02-12T08:00:18.619Z,45
2018-02-12T08:01:33.332Z,45
2018-02-12T08:02:47.948Z,50
2018-02-12T08:04:03.626Z,55
2018-02-12T08:05:19.535Z,55
2018-02-12T08:06:34.250Z,60
2018-02-12T08:07:48.931Z,60
2018-02-12T08:09:03.295Z,60
2018-02-12T08:10:18.453Z,45
2018-02-12T08:11:32.846Z,55
2018-02-12T08:12:47.982Z,50
2018-02-12T08:14:03.303Z,40
2018-02-12T08:15:18.658Z,35
2018-02-12T08:16:33.793Z,35
2018-02-12T08:17:48.763Z,40
2018-02-12T08:19:03.469Z,45
2018-02-12T08:20:19.067Z,50
2018-02-12T08:21:33.978Z,45
2018-02-12T08:22:48.696Z,50
2018-02-12T08:24:03.079Z,65
2018-02-12T08:25:17.839Z,65
2018-02-12T08:26:32.538Z,65
2018-02-12T08:27:47.435Z,75
2018-02-12T08:29:02.721Z,75
2018-02-12T08:30:18.108Z,75
2018-02-12T08:31:32.907Z,75
2018-02-12T08:32:48.650Z,75
2018-02-12T08:34:02.974Z,75
2018-02-12T08:35:18.126Z,90
2018-02-12T08:36:33.083Z,100
2018-02-12T08:37:48.265Z,95
2018-02-12T08:39:03.546Z,85
2018-02-12T08:40:18.701Z,75
2018-02-12T08:41:33.839Z,75
2018-02-12T08:42:48.338Z,70
2018-02-12T08:44:02.936Z,55
2018-02-12T08:45:18.306Z,40
2018-02-12T08:46:33.059Z,30
2018-02-12T08:47:48.143Z,35
2018-02-12T08:49:02.918Z,40
2018-02-12T08:50:17.340Z,50
2018-02-12T08:51:32.511Z,50
2018-02-12T08:52:47.535Z,55
2018-02-12T08:54:01.720Z,60
2018-02-12T08:55:16.749Z,60
2018-02-12T08:56:31.576Z,65
2018-02-12T08:57:46.434Z,65
2018-02-12T08:59:01.909Z,65
2018-02-12T09:00:16.016Z,70
2018-02-12T09:01:31.312Z,75
2018-02-12T09:02:46.268Z,75
2018-02-12T09:04:01.806Z,85
2018-02-12T09:05:17.034Z,90
2018-02-12T09:06:31.959Z,90
2018-02-12T09:07:46.657Z,95
2018-02-12T09:09:01.794Z,105
2018-02-12T09:10:17.162Z,115
2018-02-12T09:11:32.395Z,120
2018-02-12T09:12:47.642Z,115
2018-02-12T09:14:02.567Z,110
2018-02-12T09:15:17.328Z,105
2018-02-12T09:16:32.756Z,100
2018-02-12T09:17:47.115Z,100
2018-02-12T09:19:02.086Z,105
2018-02-12T09:20:16.437Z,105
2018-02-12T09:21:31.746Z,105
2018-02-12T09:22:46.439Z,100
2018-02-12T09:24:00.886Z,95
2018-02-12T09:25:15.829Z,90
2018-02-12T09:26:30.361Z,90
2018-02-12T09:27:44.721Z,90
2018-02-12T09:28:59.996Z,95
2018-02-12T09:30:14.696Z,95
2018-02-12T09:31:29.740Z,90
2018-02-12T09:32:44.379Z,95
2018-02-12T09:33:59.349Z,100
2018-02-12T09:35:14.071Z,100
2018-02-12T09:36:28.428Z,90
2018-02-12T09:37:42.885Z,85
2018-02-12T09:38:57.586Z,80
2018-02-12T09:40:12.265Z,80
2018-02-12T09:41:28.222Z,95
2018-02-12T09:42:42.976Z,105
2018-02-12T09:43:58.264Z,100
2018-02-12T09:45:12.944Z,95
2018-02-12T09:46:28.121Z,85
2018-02-12T09:47:43.506Z,80
2018-02-12T09:48:57.984Z,60
2018-02-12T09:50:12.375Z,60
2018-02-12T09:51:27.508Z,85
2018-02-12T09:52:42.564Z,85
2018-02-12T09:53:58.132Z,110
2018-02-12T09:55:12.823Z,135
2018-02-12T09:56:28.354Z,140
2018-02-12T09:57:43.058Z,160
2018-02-12T09:58:58.314Z,165
2018-02-12T10:00:13.680Z,180
2018-02-12T10:01:28.975Z,185
2018-02-12T10:02:43.465Z,185
2018-02-12T10:03:57.329Z,180
2018-02-12T10:05:12.635Z,180
2018-02-12T10:06:27.820Z,185
2018-02-12T10:07:42.772Z,170
2018-02-12T10:08:57.260Z,135
2018-02-12T10:10:12.201Z,115
2018-02-12T10:11:26.953Z,100
2018-02-12T10:12:42.246Z,85
2018-02-12T10:13:56.888Z,70
2018-02-12T10:15:11.637Z,75
2018-02-12T10:16:26.956Z,75
2018-02-12T10:17:42.075Z,80
2018-02-12T10:18:57.150Z,85
2018-02-12T10:20:12.297Z,85
2018-02-12T10:21:26.635Z,80
2018-02-12T10:22:41.894Z,80
2018-02-12T10:23:56.709Z,90
2018-02-12T10:25:11.642Z,95
2018-02-12T10:26:26.392Z,95
2018-02-12T10:27:41.497Z,95
2018-02-12T10:28:56.876Z,95
2018-02-12T10:30:11.802Z,95
2018-02-12T10:31:27.225Z,100
2018-02-12T10:32:42.522Z,100
2018-02-12T10:33:57.827Z,100
2018-02-12T10:35:12.561Z,105
2018-02-12T10:36:27.266Z,105
2018-02-12T10:37:42.607Z,105
2018-02-12T10:38:57.970Z,110
2018-02-12T10:40:13.069Z,115
2018-02-12T10:41:27.770Z,105
2018-02-12T10:42:42.500Z,100
2018-02-12T10:43:58.924Z,100
2018-02-12T10:45:13.726Z,105
2018-02-12T10:46:28.040Z,110
2018-02-12T10:47:42.997Z,125
2018-02-12T10:48:57.369Z,130
2018-02-12T10:50:12.653Z,125
2018-02-12T10:51:27.115Z,110
2018-02-12T10:52:42.625Z,95
2018-02-12T10:53:57.391Z,80
2018-02-12T10:55:11.846Z,75
2018-02-12T10:56:27.576Z,85
2018-02-12T10:57:41.545Z,85
2018-02-12T10:58:56.254Z,80
2018-02-12T11:00:11.678Z,70
2018-02-12T11:01:26.687Z,70
2018-02-12T11:02:42.392Z,75
2018-02-12T11:03:57.713Z,95
2018-02-12T11:05:12.159Z,105
2018-02-12T11:06:27.164Z,115
2018-02-12T11:07:42.122Z,125
2018-02-12T11:08:57.039Z,130
2018-02-12T11:10:11.423Z,125
2018-02-12T11:11:26.066Z,120
2018-02-12T11:12:40.932Z,115
2018-02-12T11:13:55.854Z,105
2018-02-12T11:15:10.568Z,100
2018-02-12T11:16:25.626Z,90
2018-02-12T11:17:40.975Z,70
2018-02-12T11:18:56.374Z,55
2018-02-12T11:20:11.025Z,55
2018-02-12T11:21:26.334Z,60
2018-02-12T11:22:40.398Z,45
2018-02-12T11:23:55.096Z,35
2018-02-12T11:25:09.527Z,35
2018-02-12T11:26:24.802Z,35
2018-02-12T11:27:40.008Z,40
2018-02-12T11:28:55.335Z,40
2018-02-12T11:30:09.492Z,40
2018-02-12T11:31:24.759Z,40
2018-02-12T11:32:38.670Z,40
2018-02-12T11:33:53.926Z,50
2018-02-12T11:35:09.231Z,70
2018-02-12T11:36:23.651Z,85
2018-02-12T11:37:38.087Z,105
2018-02-12T11:38:52.352Z,115
2018-02-12T11:40:07.888Z,115
2018-02-12T11:41:22.835Z,110
2018-02-12T11:42:37.828Z,115
2018-02-12T11:43:52.197Z,130
2018-02-12T11:45:06.918Z,140
2018-02-12T11:46:21.973Z,145
2018-02-12T11:47:37.250Z,145
2018-02-12T11:48:52.179Z,155
2018-02-12T11:50:07.326Z,160
2018-02-12T11:51:22.531Z,165
2018-02-12T11:52:38.113Z,175
2018-02-12T11:53:52.717Z,180
2018-02-12T11:55:08.245Z,180
2018-02-12T11:56:23.647Z,175
2018-02-12T11:57:38.704Z,175
2018-02-12T11:58:54.487Z,175
2018-02-12T12:00:09.011Z,180
2018-02-12T12:01:24.288Z,180
2018-02-12T12:02:38.985Z,180
2018-02-12T12:03:54.252Z,175
2018-02-12T12:05:09.498Z,160
2018-02-12T12:06:24.469Z,145
2018-02-12T12:07:39.131Z,140
2018-02-12T12:08:54.184Z,135
2018-02-12T12:10:09.125Z,125
2018-02-12T12:11:24.187Z,120
2018-02-12T12:12:39.173Z,100
2018-02-12T12:13:53.857Z,95
2018-02-12T12:15:08.837Z,90
2018-02-12T12:16:23.645Z,85
2018-02-12T12:17:38.684Z,70
2018-02-12T12:18:53.399Z,65
2018-02-12T12:20:08.626Z,60
2018-02-12T12:21:23.318Z,60
2018-02-12T12:22:37.752Z,50
2018-02-12T12:23:53.620Z,45
2018-02-12T12:25:08.063Z,50
2018-02-12T12:26:23.098Z,55
2018-02-12T12:27:37.818Z,65
2018-02-12T12:28:51.977Z,60
2018-02-12T12:30:07.079Z,65
2018-02-12T12:31:22.083Z,70
2018-02-12T12:32:37.716Z,75
2018-02-12T12:33:53.024Z,75
2018-02-12T12:35:07.445Z,80
2018-02-12T12:36:22.683Z,70
2018-02-12T12:37:37.438Z,80
2018-02-12T12:38:51.950Z,85
2018-02-12T12:40:07.592Z,90
2018-02-12T12:41:22.904Z,90
2018-02-12T12:42:37.985Z,90
2018-02-12T12:43:53.291Z,95
2018-02-12T12:45:08.110Z,95
2018-02-12T12:46:23.521Z,90
2018-02-12T12:47:38.251Z,95
2018-02-12T12:48:53.720Z,100
2018-02-12T12:50:08.509Z,110
2018-02-12T12:51:23.800Z,115
2018-02-12T12:52:39.067Z,110
2018-02-12T12:53:53.769Z,115
2018-02-12T12:55:08.402Z,115
2018-02-12T12:56:24.298Z,115
2018-02-12T12:57:38.367Z,110
2018-02-12T12:58:53.378Z,105
2018-02-12T13:00:08.153Z,100
2018-02-12T13:01:22.970Z,105
2018-02-12T13:02:37.708Z,105
2018-02-12T13:03:52.145Z,100
2018-02-12T13:05:06.786Z,105
2018-02-12T13:06:21.586Z,105
2018-02-12T13:07:36.444Z,105
2018-02-12T13:08:51.154Z,100
2018-02-12T13:10:05.779Z,90
2018-02-12T13:11:20.721Z,95
2018-02-12T13:12:41.737Z,85
2018-02-12T13:13:55.738Z,80
2018-02-12T13:15:09.994Z,80
2018-02-12T13:16:24.979Z,75
2018-02-12T13:17:40.292Z,75
2018-02-12T13:18:54.471Z,65
2018-02-12T13:20:10.409Z,55
2018-02-12T13:21:24.663Z,45
2018-02-12T13:22:39.845Z,40
2018-02-12T13:23:54.488Z,40
2018-02-12T13:25:09.108Z,45
2018-02-12T13:26:22.994Z,40
2018-02-12T13:27:37.692Z,35
2018-02-12T13:28:52.522Z,35
2018-02-12T13:30:07.075Z,35
2018-02-12T13:31:21.610Z,40
2018-02-12T13:32:36.907Z,45
2018-02-12T13:33:50.962Z,45
2018-02-12T13:35:05.688Z,50
2018-02-12T13:36:21.112Z,65
2018-02-12T13:37:35.744Z,80
2018-02-12T13:38:51.308Z,95
2018-02-12T13:40:06.433Z,95
2018-02-12T13:41:21.118Z,100
2018-02-12T13:42:36.217Z,100
2018-02-12T13:43:50.576Z,100
2018-02-12T13:45:05.537Z,100
2018-02-12T13:46:20.109Z,100
2018-02-12T13:47:34.858Z,95
2018-02-12T13:48:50.042Z,95
2018-02-12T13:50:05.592Z,95
2018-02-12T13:51:21.649Z,95
2018-02-12T13:52:37.101Z,95
2018-02-12T13:53:52.125Z,95
2018-02-12T13:55:07.360Z,90
2018-02-12T13:56:22.103Z,90
2018-02-12T13:57:36.839Z,90
2018-02-12T13:58:51.806Z,90
2018-02-12T14:00:06.452Z,85
2018-02-12T14:01:22.183Z,85
2018-02-12T14:02:37.528Z,85
2018-02-12T14:03:52.630Z,75
2018-02-12T14:05:07.195Z,75
2018-02-12T14:06:22.358Z,75
2018-02-12T14:07:36.836Z,75
2018-02-12T14:08:51.523Z,80
2018-02-12T14:10:06.458Z,80
2018-02-12T14:11:20.426Z,85
2018-02-12T14:12:35.151Z,85
2018-02-12T14:13:50.374Z,80
2018-02-12T14:15:04.783Z,80
2018-02-12T14:16:20.081Z,90
2018-02-12T14:17:34.998Z,85
2018-02-12T14:18:49.952Z,80
2018-02-12T14:20:05.477Z,80
2018-02-12T14:21:20.037Z,80
2018-02-12T14:22:35.358Z,80
2018-02-12T14:23:50.381Z,80
2018-02-12T14:25:05.698Z,85
2018-02-12T14:26:21.051Z,85
2018-02-12T14:27:36.024Z,80
2018-02-12T14:28:51.336Z,75
2018-02-12T14:30:07.110Z,70
2018-02-12T14:31:22.223Z,70
2018-02-12T14:32:37.292Z,65
2018-02-12T14:33:52.551Z,65
2018-02-12T14:35:07.897Z,65
2018-02-12T14:36:23.008Z,70
2018-02-12T14:37:37.731Z,70
2018-02-12T14:38:51.901Z,70
2018-02-12T14:40:06.823Z,70
2018-02-12T14:41:22.080Z,70
2018-02-12T14:42:36.197Z,70
2018-02-12T14:43:51.360Z,65
2018-02-12T14:45:06.251Z,65
2018-02-12T14:46:21.979Z,65
2018-02-12T14:47:37.311Z,65
2018-02-12T14:48:51.736Z,65
2018-02-12T14:50:06.130Z,65
2018-02-12T14:51:20.826Z,60
2018-02-12T14:52:35.804Z,55
2018-02-12T14:53:50.897Z,50
2018-02-12T14:55:05.650Z,45
2018-02-12T14:56:20.907Z,35
2018-02-12T14:57:35.853Z,30
2018-02-12T14:58:50.921Z,35
2018-02-12T15:00:04.902Z,45
2018-02-12T15:01:19.493Z,55
2018-02-12T15:02:34.215Z,60
2018-02-12T15:03:49.302Z,60
2018-02-12T15:05:04.000Z,55
2018-02-12T15:06:20.072Z,55
2018-02-12T15:07:35.044Z,55
2018-02-12T15:08:50.049Z,50
2018-02-12T15:10:05.317Z,55
2018-02-12T15:11:19.861Z,60
2018-02-12T15:12:34.902Z,60
2018-02-12T15:13:50.090Z,60
2018-02-12T15:15:04.619Z,60
2018-02-12T15:16:19.933Z,60
2018-02-12T15:17:35.554Z,60
2018-02-12T15:18:50.329Z,55
2018-02-12T15:20:05.034Z,55
2018-02-12T15:21:20.599Z,55
2018-02-12T15:22:35.068Z,50
2018-02-12T15:23:49.493Z,50
2018-02-12T15:25:04.521Z,50
2018-02-12T15:26:19.460Z,45
2018-02-12T15:27:35.078Z,45
2018-02-12T15:28:49.271Z,45
2018-02-12T15:30:03.941Z,45
2018-02-12T15:31:18.111Z,45
2018-02-12T15:32:32.792Z,45
2018-02-12T15:33:47.474Z,40
2018-02-12T15:35:02.561Z,40
2018-02-12T15:36:16.416Z,40
2018-02-12T15:37:32.102Z,40
2018-02-12T15:38:47.654Z,40
2018-02-12T15:40:03.196Z,40
2018-02-12T15:41:18.161Z,40
2018-02-12T15:42:33.954Z,40
2018-02-12T15:43:48.525Z,40
2018-02-12T15:45:03.901Z,40
2018-02-12T15:46:18.606Z,40
2018-02-12T15:47:33.458Z,40
2018-02-12T15:48:48.589Z,35
2018-02-12T15:50:04.168Z,35
2018-02-12T15:51:18.516Z,35
2018-02-12T15:52:33.884Z,35
2018-02-12T15:53:49.155Z,35
2018-02-12T15:55:04.184Z,35
2018-02-12T15:56:19.444Z,30
2018-02-12T15:57:34.578Z,30
2018-02-12T15:58:49.521Z,30
2018-02-12T16:00:04.499Z,30
2018-02-12T16:01:18.726Z,30
2018-02-12T16:02:34.236Z,30
2018-02-12T16:03:48.818Z,25
2018-02-12T16:05:03.322Z,25
2018-02-12T16:06:18.513Z,25
2018-02-12T16:07:34.335Z,25
2018-02-12T16:08:49.231Z,25
2018-02-12T16:10:04.686Z,20
2018-02-12T16:11:19.860Z,20
2018-02-12T16:12:34.489Z,20
2018-02-12T16:13:49.610Z,20
2018-02-12T16:15:04.404Z,15
2018-02-12T16:16:19.447Z,15
2018-02-12T16:17:34.849Z,15
2018-02-12T16:18:49.863Z,15
2018-02-12T16:20:05.217Z,15
2018-02-12T16:21:20.977Z,15
2018-02-12T16:22:35.741Z,10
2018-02-12T16:23:50.155Z,10
2018-02-12T16:25:06.063Z,10
2018-02-12T16:26:21.095Z,10
2018-02-12T16:27:36.978Z,10
2018-02-12T16:28:51.684Z,10
2018-02-12T16:30:06.682Z,5
2018-02-12T16:31:21.555Z,5
2018-02-12T16:32:36.698Z,5
2018-02-12T16:33:51.531Z,5
2018-02-12T16:35:05.962Z,5
2018-02-12T16:36:21.594Z,5
2018-02-12T16:37:36.478Z,5
2018-02-12T16:38:51.309Z,0
2018-02-12T16:40:06.237Z,0
2018-02-12T16:41:20.979Z,0
2018-02-12T16:42:35.798Z,0
2018-02-12T16:43:50.483Z,0
2018-02-12T16:45:05.339Z,0
2018-02-12T16:46:20.251Z,0
2018-02-12T16:47:35.332Z,0
2018-02-12T16:48:50.354Z,0
2018-02-12T16:50:05.720Z,0
2018-02-12T16:51:20.566Z,0
2018-02-12T16:52:35.891Z,0
2018-02-12T16:53:51.614Z,0
2018-02-12T16:55:06.286Z,0
2018-02-12T16:56:20.880Z,0
2018-02-12T16:57:34.979Z,0
2018-02-12T16:58:50.074Z,0
2018-02-12T17:00:05.094Z,0
2018-02-12T17:01:19.262Z,0
2018-02-12T17:02:33.855Z,0
2018-02-12T17:03:48.739Z,0
2018-02-12T17:05:04.214Z,0
2018-02-12T17:06:19.558Z,0
2018-02-12T17:07:34.357Z,0
2018-02-12T17:08:49.147Z,0
2018-02-12T17:10:04.524Z,0
2018-02-12T17:11:19.966Z,0
2018-02-12T17:12:35.244Z,0
2018-02-12T17:13:49.954Z,0
2018-02-12T17:15:04.421Z,0
2018-02-12T17:16:21.078Z,0
2018-02-12T17:17:35.857Z,0
2018-02-12T17:18:50.669Z,0
2018-02-12T17:20:05.677Z,0
2018-02-12T17:21:20.538Z,0
2018-02-12T17:22:35.571Z,0
2018-02-12T17:23:50.570Z,0
2018-02-12T17:25:05.560Z,0
2018-02-12T17:26:20.543Z,0
2018-02-12T17:27:35.386Z,0
2018-02-12T17:28:50.364Z,0
2018-02-12T17:30:05.143Z,0
2018-02-12T17:31:20.730Z,0
2018-02-12T17:32:35.228Z,0
2018-02-12T17:33:49.705Z,0
2018-02-12T17:35:03.881Z,0
2018-02-12T17:36:19.315Z,0
2018-02-12T17:37:34.035Z,0
2018-02-12T17:38:48.925Z,0
2018-02-12T17:40:03.179Z,0
2018-02-12T17:41:17.951Z,0
2018-02-12T17:42:34.424Z,0
2018-02-12T17:43:49.887Z,0
2018-02-12T17:45:04.942Z,0
2018-02-12T17:46:19.711Z,0
2018-02-12T17:47:35.161Z,0
2018-02-12T17:48:50.586Z,0
2018-02-12T17:50:05.790Z,0
2018-02-12T17:51:20.000Z,0
2018-02-12T17:52:34.882Z,0
2018-02-12T17:53:49.380Z,0
2018-02-12T17:55:05.380Z,0
2018-02-12T17:56:19.615Z,0
2018-02-12T17:57:35.273Z,0
2018-02-12T17:58:50.025Z,0
2018-02-12T18:00:04.876Z,0
2018-02-12T18:01:20.443Z,0